createdAt,value
2022-12-22T00:00:34.575Z,4.25
2022-12-22T00:15:23.586Z,4.30
2022-12-22T00:30:23.469Z,4.55
2022-12-22T00:45:23.484Z,5.53
2022-12-22T01:00:23.671Z,6.57
2022-12-22T01:15:23.776Z,7.32
2022-12-22T01:30:24.010Z,7.47
2022-12-22T01:45:23.860Z,7.70
2022-12-22T02:00:28.972Z,7.88
2022-12-22T02:15:23.681Z,8.07
2022-12-22T02:30:23.971Z,8.05
2022-12-22T02:45:24.021Z,8.40
2022-12-22T03:00:24.028Z,8.45
2022-12-22T03:15:23.912Z,8.65
2022-12-22T03:30:24.032Z,8.70
2022-12-22T03:45:24.005Z,8.52
2022-12-22T04:00:29.091Z,8.47
2022-12-22T04:15:23.995Z,8.48
2022-12-22T04:30:24.006Z,8.60
2022-12-22T04:45:23.870Z,8.98
2022-12-22T05:00:33.173Z,9.18
2022-12-22T05:15:23.963Z,9.35
2022-12-22T05:30:24.311Z,9.20
2022-12-22T05:45:24.018Z,9.30
2022-12-22T06:00:30.483Z,9.40
2022-12-22T06:15:25.479Z,9.52
2022-12-22T06:30:30.949Z,9.47
2022-12-22T06:45:24.170Z,9.30
2022-12-22T07:00:37.257Z,9.40
2022-12-22T07:15:24.250Z,9.40
2022-12-22T07:30:24.024Z,9.57
2022-12-22T07:45:33.255Z,9.50
2022-12-22T08:00:33.920Z,9.50
2022-12-22T08:15:23.656Z,9.70
2022-12-22T08:30:23.482Z,9.45
2022-12-22T08:45:23.290Z,9.40
2022-12-22T09:00:29.889Z,9.40
2022-12-22T09:15:24.104Z,9.55
2022-12-22T09:30:23.418Z,9.55
2022-12-22T09:45:23.448Z,9.45
2022-12-22T10:00:33.795Z,9.43
2022-12-22T10:15:23.612Z,9.45
2022-12-22T10:30:25.012Z,9.75
2022-12-22T10:45:23.530Z,9.88
2022-12-22T11:00:26.340Z,9.98
2022-12-22T11:15:24.851Z,10.05
2022-12-22T11:30:26.589Z,10.32
2022-12-22T11:45:23.663Z,10.53
2022-12-22T12:01:11.827Z,10.57
2022-12-22T12:15:23.555Z,10.62
2022-12-22T12:30:38.808Z,10.62
2022-12-22T12:45:23.876Z,10.60
2022-12-22T13:00:26.377Z,10.97
2022-12-22T13:15:23.637Z,10.83
2022-12-22T13:30:23.757Z,10.90
2022-12-22T13:45:23.764Z,10.98
2022-12-22T14:00:26.316Z,10.85
2022-12-22T14:15:23.831Z,10.80
2022-12-22T14:30:30.991Z,10.62
2022-12-22T14:45:23.897Z,10.52
2022-12-22T15:00:34.511Z,10.50
2022-12-22T15:15:24.241Z,10.57
2022-12-22T15:30:28.914Z,10.30
2022-12-22T15:45:24.131Z,10.33
2022-12-22T16:00:27.731Z,10.25
2022-12-22T16:15:24.744Z,10.20
2022-12-22T16:30:29.666Z,10.27
2022-12-22T16:45:24.049Z,9.98
2022-12-22T17:00:35.873Z,9.57
2022-12-22T17:15:23.606Z,9.12
2022-12-22T17:30:23.301Z,9.00
2022-12-22T17:45:23.655Z,8.97
2022-12-22T18:00:23.697Z,9.10
2022-12-22T18:15:23.271Z,9.18
2022-12-22T18:30:23.494Z,9.50
2022-12-22T18:45:23.363Z,9.67
2022-12-22T19:00:33.391Z,9.62
2022-12-22T19:15:23.559Z,9.62
2022-12-22T19:30:24.050Z,9.90
2022-12-22T19:45:23.519Z,9.90
2022-12-22T20:00:28.969Z,9.93
2022-12-22T20:15:23.733Z,10.00
2022-12-22T20:30:23.819Z,9.98
2022-12-22T20:45:23.698Z,9.90
2022-12-22T21:00:38.971Z,9.90
2022-12-22T21:15:23.962Z,9.90
2022-12-22T21:30:25.000Z,9.77
2022-12-22T21:45:23.801Z,9.70
2022-12-22T22:00:27.516Z,9.55
2022-12-22T22:15:23.984Z,9.35
2022-12-22T22:30:24.591Z,9.10
2022-12-22T22:45:24.403Z,9.02
2022-12-22T23:03:09.171Z,8.40
2022-12-22T23:15:23.797Z,8.77
2022-12-22T23:30:23.829Z,8.75
2022-12-22T23:45:23.965Z,9.12
